sensor_id;sensor_type;location;lat;lon;timestamp;pressure;altitude;pressure_sealevel;temperature;humidity
62655;BME280;48717;55.556;37.816;2023-08-06T00:02:32;99725.09;;;25.50;53.53
62655;BME280;48717;55.556;37.816;2023-08-06T00:04:59;99645.78;;;25.10;53.47
62655;BME280;48717;55.556;37.816;2023-08-06T00:07:26;99715.31;;;25.34;53.69
62655;BME280;48717;55.556;37.816;2023-08-06T00:09:53;99676.31;;;25.25;53.33
62655;BME280;48717;55.556;37.816;2023-08-06T00:12:20;99686.09;;;25.41;52.88
62655;BME280;48717;55.556;37.816;2023-08-06T00:14:51;99696.50;;;25.47;52.67
62655;BME280;48717;55.556;37.816;2023-08-06T00:17:19;99711.56;;;25.37;53.48
62655;BME280;48717;55.556;37.816;2023-08-06T00:19:46;99706.94;;;25.24;53.72
62655;BME280;48717;55.556;37.816;2023-08-06T00:22:13;99683.41;;;25.26;53.44
62655;BME280;48717;55.556;37.816;2023-08-06T00:24:40;99704.03;;;25.42;53.59
62655;BME280;48717;55.556;37.816;2023-08-06T00:27:07;99718.63;;;25.52;53.26
62655;BME280;48717;55.556;37.816;2023-08-06T00:29:35;99710.75;;;25.49;53.54
62655;BME280;48717;55.556;37.816;2023-08-06T00:32:02;99702.53;;;25.23;53.85
62655;BME280;48717;55.556;37.816;2023-08-06T00:34:29;99716.59;;;25.14;54.52
62655;BME280;48717;55.556;37.816;2023-08-06T00:36:56;99716.38;;;25.17;54.45
62655;BME280;48717;55.556;37.816;2023-08-06T00:39:23;99701.97;;;25.18;53.97
62655;BME280;48717;55.556;37.816;2023-08-06T00:41:50;99704.53;;;25.20;54.14
62655;BME280;48717;55.556;37.816;2023-08-06T00:44:18;99732.56;;;25.17;54.50
62655;BME280;48717;55.556;37.816;2023-08-06T00:46:45;99709.28;;;25.16;54.50
62655;BME280;48717;55.556;37.816;2023-08-06T00:49:12;99720.81;;;25.33;53.80
62655;BME280;48717;55.556;37.816;2023-08-06T00:51:39;99717.94;;;25.21;54.20
62655;BME280;48717;55.556;37.816;2023-08-06T00:54:06;99736.53;;;24.97;55.41
62655;BME280;48717;55.556;37.816;2023-08-06T00:56:34;99733.16;;;24.79;56.14
62655;BME280;48717;55.556;37.816;2023-08-06T00:59:05;99715.88;;;24.52;56.57
62655;BME280;48717;55.556;37.816;2023-08-06T01:01:33;99727.31;;;24.56;56.79
62655;BME280;48717;55.556;37.816;2023-08-06T01:04:00;99702.06;;;24.28;57.30
62655;BME280;48717;55.556;37.816;2023-08-06T01:12:04;99721.41;;;24.65;56.31
62655;BME280;48717;55.556;37.816;2023-08-06T01:15:00;99741.66;;;24.87;56.13
62655;BME280;48717;55.556;37.816;2023-08-06T01:17:31;99737.69;;;24.93;55.82
62655;BME280;48717;55.556;37.816;2023-08-06T01:19:58;99711.94;;;24.72;55.66
62655;BME280;48717;55.556;37.816;2023-08-06T01:22:26;99723.97;;;24.67;56.29
62655;BME280;48717;55.556;37.816;2023-08-06T01:24:54;99734.25;;;24.60;56.55
62655;BME280;48717;55.556;37.816;2023-08-06T01:27:34;99734.16;;;24.47;57.20
62655;BME280;48717;55.556;37.816;2023-08-06T01:30:21;99709.47;;;24.24;57.53
62655;BME280;48717;55.556;37.816;2023-08-06T01:32:53;99730.19;;;24.38;57.42
62655;BME280;48717;55.556;37.816;2023-08-06T01:35:28;99672.59;;;23.94;57.78
62655;BME280;48717;55.556;37.816;2023-08-06T01:37:59;99740.88;;;24.40;57.46
62655;BME280;48717;55.556;37.816;2023-08-06T01:40:28;99739.94;;;24.41;57.71
62655;BME280;48717;55.556;37.816;2023-08-06T01:42:56;99708.69;;;24.22;57.51
62655;BME280;48717;55.556;37.816;2023-08-06T01:45:23;99736.31;;;24.25;57.67
62655;BME280;48717;55.556;37.816;2023-08-06T01:47:50;99736.50;;;24.06;58.66
62655;BME280;48717;55.556;37.816;2023-08-06T01:50:17;99700.75;;;23.88;58.59
62655;BME280;48717;55.556;37.816;2023-08-06T01:52:44;99740.41;;;24.17;58.22
62655;BME280;48717;55.556;37.816;2023-08-06T01:55:11;99748.41;;;24.18;58.21
62655;BME280;48717;55.556;37.816;2023-08-06T01:57:38;99755.28;;;24.08;58.50
62655;BME280;48717;55.556;37.816;2023-08-06T02:00:06;99747.81;;;23.97;59.13
62655;BME280;48717;55.556;37.816;2023-08-06T02:02:39;99757.72;;;23.96;59.17
62655;BME280;48717;55.556;37.816;2023-08-06T02:05:09;99736.88;;;23.84;59.32
62655;BME280;48717;55.556;37.816;2023-08-06T02:07:39;99762.56;;;24.06;58.94
62655;BME280;48717;55.556;37.816;2023-08-06T02:10:06;99764.16;;;23.94;59.37
62655;BME280;48717;55.556;37.816;2023-08-06T02:12:34;99764.41;;;23.89;59.48
62655;BME280;48717;55.556;37.816;2023-08-06T02:15:02;99754.00;;;23.83;59.31
62655;BME280;48717;55.556;37.816;2023-08-06T02:17:32;99728.91;;;23.66;59.64
62655;BME280;48717;55.556;37.816;2023-08-06T02:20:00;99754.59;;;23.88;59.12
62655;BME280;48717;55.556;37.816;2023-08-06T02:22:31;99764.00;;;23.81;59.48
62655;BME280;48717;55.556;37.816;2023-08-06T02:24:58;99765.72;;;23.82;59.41
62655;BME280;48717;55.556;37.816;2023-08-06T02:27:25;99741.78;;;23.61;59.97
62655;BME280;48717;55.556;37.816;2023-08-06T02:29:52;99771.66;;;23.72;60.02
62655;BME280;48717;55.556;37.816;2023-08-06T02:32:19;99773.38;;;23.73;60.18
62655;BME280;48717;55.556;37.816;2023-08-06T02:34:46;99769.88;;;23.71;60.00
62655;BME280;48717;55.556;37.816;2023-08-06T02:37:13;99755.47;;;23.40;60.99
62655;BME280;48717;55.556;37.816;2023-08-06T02:39:40;99785.88;;;23.42;61.30
62655;BME280;48717;55.556;37.816;2023-08-06T02:42:07;99780.28;;;23.29;61.67
62655;BME280;48717;55.556;37.816;2023-08-06T02:44:35;99772.00;;;23.16;62.12
62655;BME280;48717;55.556;37.816;2023-08-06T02:47:04;99785.72;;;23.12;62.76
62655;BME280;48717;55.556;37.816;2023-08-06T02:49:31;99745.66;;;22.89;62.95
62655;BME280;48717;55.556;37.816;2023-08-06T02:51:58;99736.16;;;22.82;63.38
62655;BME280;48717;55.556;37.816;2023-08-06T02:54:25;99767.63;;;22.98;63.43
62655;BME280;48717;55.556;37.816;2023-08-06T02:56:52;99763.00;;;23.00;63.29
62655;BME280;48717;55.556;37.816;2023-08-06T02:59:30;99753.09;;;23.18;62.43
62655;BME280;48717;55.556;37.816;2023-08-06T03:02:18;99771.09;;;23.33;61.97
62655;BME280;48717;55.556;37.816;2023-08-06T03:04:56;99783.47;;;23.54;61.55
62655;BME280;48717;55.556;37.816;2023-08-06T03:07:29;99783.69;;;23.65;61.39
62655;BME280;48717;55.556;37.816;2023-08-06T03:10:04;99775.63;;;23.65;61.49
62655;BME280;48717;55.556;37.816;2023-08-06T03:12:31;99773.91;;;23.64;61.30
62655;BME280;48717;55.556;37.816;2023-08-06T03:15:00;99751.66;;;23.44;61.42
62655;BME280;48717;55.556;37.816;2023-08-06T03:17:29;99767.31;;;23.54;61.80
62655;BME280;48717;55.556;37.816;2023-08-06T03:19:57;99772.34;;;23.60;61.91
62655;BME280;48717;55.556;37.816;2023-08-06T03:22:25;99754.28;;;23.46;61.73
62655;BME280;48717;55.556;37.816;2023-08-06T03:24:52;99782.75;;;23.66;62.12
62655;BME280;48717;55.556;37.816;2023-08-06T03:27:23;99776.22;;;23.70;62.24
62655;BME280;48717;55.556;37.816;2023-08-06T03:29:51;99755.75;;;23.52;62.62
62655;BME280;48717;55.556;37.816;2023-08-06T03:32:21;99756.88;;;23.47;63.26
62655;BME280;48717;55.556;37.816;2023-08-06T03:34:49;99767.31;;;23.54;63.39
62655;BME280;48717;55.556;37.816;2023-08-06T03:37:16;99746.72;;;23.53;63.60
62655;BME280;48717;55.556;37.816;2023-08-06T03:39:43;99773.75;;;23.67;63.35
62655;BME280;48717;55.556;37.816;2023-08-06T03:42:10;99776.50;;;23.82;62.79
62655;BME280;48717;55.556;37.816;2023-08-06T03:44:37;99759.97;;;23.88;62.63
62655;BME280;48717;55.556;37.816;2023-08-06T03:47:07;99735.69;;;23.73;62.91
62655;BME280;48717;55.556;37.816;2023-08-06T03:49:34;99775.59;;;23.97;62.91
62655;BME280;48717;55.556;37.816;2023-08-06T03:52:03;99742.09;;;23.87;62.97
62655;BME280;48717;55.556;37.816;2023-08-06T03:54:30;99768.56;;;24.11;62.68
62655;BME280;48717;55.556;37.816;2023-08-06T03:56:57;99758.75;;;24.10;62.75
62655;BME280;48717;55.556;37.816;2023-08-06T03:59:24;99739.13;;;24.08;62.59
62655;BME280;48717;55.556;37.816;2023-08-06T04:01:51;99761.63;;;24.23;62.85
62655;BME280;48717;55.556;37.816;2023-08-06T04:04:19;99752.66;;;24.22;62.49
62655;BME280;48717;55.556;37.816;2023-08-06T04:06:46;99764.13;;;24.26;62.57
62655;BME280;48717;55.556;37.816;2023-08-06T04:09:13;99731.22;;;24.05;63.04
62655;BME280;48717;55.556;37.816;2023-08-06T04:11:40;99717.75;;;24.05;62.99
62655;BME280;48717;55.556;37.816;2023-08-06T04:14:08;99763.78;;;24.47;62.58
62655;BME280;48717;55.556;37.816;2023-08-06T04:16:35;99730.19;;;24.38;63.08
62655;BME280;48717;55.556;37.816;2023-08-06T04:19:02;99761.16;;;24.76;61.72
62655;BME280;48717;55.556;37.816;2023-08-06T04:21:29;99765.19;;;24.83;61.67
62655;BME280;48717;55.556;37.816;2023-08-06T04:23:57;99760.31;;;25.05;60.81
62655;BME280;48717;55.556;37.816;2023-08-06T04:26:24;99765.53;;;25.37;59.51
62655;BME280;48717;55.556;37.816;2023-08-06T04:28:51;99757.16;;;25.84;58.31
62655;BME280;48717;55.556;37.816;2023-08-06T04:31:19;99731.72;;;26.01;56.57
62655;BME280;48717;55.556;37.816;2023-08-06T04:33:47;99747.41;;;26.36;56.01
62655;BME280;48717;55.556;37.816;2023-08-06T04:36:16;99753.06;;;26.59;55.46
62655;BME280;48717;55.556;37.816;2023-08-06T04:38:44;99764.09;;;26.82;54.50
62655;BME280;48717;55.556;37.816;2023-08-06T04:41:15;99708.94;;;26.84;52.97
62655;BME280;48717;55.556;37.816;2023-08-06T04:43:42;99741.88;;;27.42;51.45
62655;BME280;48717;55.556;37.816;2023-08-06T04:46:09;99753.31;;;27.58;51.30
62655;BME280;48717;55.556;37.816;2023-08-06T04:48:36;99756.34;;;27.67;50.97
62655;BME280;48717;55.556;37.816;2023-08-06T04:51:03;99757.78;;;27.84;50.97
62655;BME280;48717;55.556;37.816;2023-08-06T04:53:30;99748.09;;;27.93;50.90
62655;BME280;48717;55.556;37.816;2023-08-06T04:55:57;99759.56;;;28.21;49.44
62655;BME280;48717;55.556;37.816;2023-08-06T04:58:25;99752.38;;;28.33;49.65
62655;BME280;48717;55.556;37.816;2023-08-06T05:00:52;99754.34;;;28.42;49.13
62655;BME280;48717;55.556;37.816;2023-08-06T05:03:20;99756.75;;;28.58;49.43
62655;BME280;48717;55.556;37.816;2023-08-06T05:05:48;99753.81;;;28.84;49.53
62655;BME280;48717;55.556;37.816;2023-08-06T05:08:16;99737.56;;;28.84;48.91
62655;BME280;48717;55.556;37.816;2023-08-06T05:10:44;99716.84;;;28.83;48.58
62655;BME280;48717;55.556;37.816;2023-08-06T05:13:12;99741.06;;;29.09;47.57
62655;BME280;48717;55.556;37.816;2023-08-06T05:15:39;99714.38;;;29.26;46.93
62655;BME280;48717;55.556;37.816;2023-08-06T05:18:09;99734.59;;;29.67;45.95
62655;BME280;48717;55.556;37.816;2023-08-06T05:20:37;99733.41;;;29.81;45.96
62655;BME280;48717;55.556;37.816;2023-08-06T05:23:05;99721.81;;;29.79;45.27
62655;BME280;48717;55.556;37.816;2023-08-06T05:25:34;99740.66;;;29.92;45.75
62655;BME280;48717;55.556;37.816;2023-08-06T05:28:03;99739.16;;;30.00;45.27
62655;BME280;48717;55.556;37.816;2023-08-06T05:30:30;99724.31;;;30.04;46.06
62655;BME280;48717;55.556;37.816;2023-08-06T05:32:57;99724.66;;;30.10;45.58
62655;BME280;48717;55.556;37.816;2023-08-06T05:35:24;99710.19;;;30.21;44.53
62655;BME280;48717;55.556;37.816;2023-08-06T05:37:51;99706.75;;;30.41;44.40
62655;BME280;48717;55.556;37.816;2023-08-06T05:40:18;99718.47;;;30.63;43.25
62655;BME280;48717;55.556;37.816;2023-08-06T05:42:45;99711.50;;;31.01;42.86
62655;BME280;48717;55.556;37.816;2023-08-06T05:45:13;99728.38;;;31.26;42.48
62655;BME280;48717;55.556;37.816;2023-08-06T05:47:40;99736.69;;;31.24;42.66
62655;BME280;48717;55.556;37.816;2023-08-06T05:50:07;99726.72;;;31.35;42.06
62655;BME280;48717;55.556;37.816;2023-08-06T05:52:35;99724.47;;;31.60;42.45
62655;BME280;48717;55.556;37.816;2023-08-06T05:55:03;99725.03;;;31.63;41.91
62655;BME280;48717;55.556;37.816;2023-08-06T05:57:30;99732.66;;;31.70;41.68
62655;BME280;48717;55.556;37.816;2023-08-06T05:59:57;99733.16;;;32.24;41.16
62655;BME280;48717;55.556;37.816;2023-08-06T06:02:24;99729.81;;;32.30;40.17
62655;BME280;48717;55.556;37.816;2023-08-06T06:04:51;99724.97;;;32.24;40.46
62655;BME280;48717;55.556;37.816;2023-08-06T06:07:18;99729.81;;;32.40;40.54
62655;BME280;48717;55.556;37.816;2023-08-06T06:09:45;99728.97;;;32.60;39.89
62655;BME280;48717;55.556;37.816;2023-08-06T06:12:12;99727.94;;;32.61;39.05
62655;BME280;48717;55.556;37.816;2023-08-06T06:14:39;99728.53;;;33.02;38.09
62655;BME280;48717;55.556;37.816;2023-08-06T06:17:07;99708.53;;;33.40;37.43
62655;BME280;48717;55.556;37.816;2023-08-06T06:19:33;99719.28;;;33.69;37.86
62655;BME280;48717;55.556;37.816;2023-08-06T06:22:00;99706.66;;;33.68;37.54
62655;BME280;48717;55.556;37.816;2023-08-06T06:24:27;99721.88;;;33.71;37.76
62655;BME280;48717;55.556;37.816;2023-08-06T06:26:54;99724.22;;;33.66;37.85
62655;BME280;48717;55.556;37.816;2023-08-06T06:29:21;99692.19;;;33.76;37.23
62655;BME280;48717;55.556;37.816;2023-08-06T06:31:49;99704.31;;;34.10;37.40
62655;BME280;48717;55.556;37.816;2023-08-06T06:34:17;99702.53;;;34.19;36.69
62655;BME280;48717;55.556;37.816;2023-08-06T06:36:44;99700.41;;;34.13;36.51
62655;BME280;48717;55.556;37.816;2023-08-06T06:39:12;99715.78;;;34.14;36.76
62655;BME280;48717;55.556;37.816;2023-08-06T06:41:39;99651.13;;;34.31;35.01
62655;BME280;48717;55.556;37.816;2023-08-06T06:44:16;99696.44;;;34.78;33.89
62655;BME280;48717;55.556;37.816;2023-08-06T06:46:43;99688.19;;;34.51;35.08
62655;BME280;48717;55.556;37.816;2023-08-06T06:49:10;99709.72;;;34.46;35.37
62655;BME280;48717;55.556;37.816;2023-08-06T06:51:38;99692.56;;;34.62;35.79
62655;BME280;48717;55.556;37.816;2023-08-06T06:54:06;99700.50;;;34.74;34.94
62655;BME280;48717;55.556;37.816;2023-08-06T06:56:33;99703.66;;;34.87;34.87
62655;BME280;48717;55.556;37.816;2023-08-06T06:59:00;99682.78;;;35.21;33.64
62655;BME280;48717;55.556;37.816;2023-08-06T07:01:27;99690.41;;;35.09;34.54
62655;BME280;48717;55.556;37.816;2023-08-06T07:03:55;99677.03;;;35.06;34.45
62655;BME280;48717;55.556;37.816;2023-08-06T07:06:22;99709.31;;;35.29;33.77
62655;BME280;48717;55.556;37.816;2023-08-06T07:08:49;99682.66;;;35.56;33.78
62655;BME280;48717;55.556;37.816;2023-08-06T07:11:16;99692.50;;;35.84;32.25
62655;BME280;48717;55.556;37.816;2023-08-06T07:13:43;99700.91;;;36.40;31.43
62655;BME280;48717;55.556;37.816;2023-08-06T07:16:10;99702.66;;;36.50;31.24
62655;BME280;48717;55.556;37.816;2023-08-06T07:18:37;99663.53;;;36.31;31.56
62655;BME280;48717;55.556;37.816;2023-08-06T07:21:05;99690.28;;;36.12;31.81
62655;BME280;48717;55.556;37.816;2023-08-06T07:23:32;99695.09;;;36.10;31.50
62655;BME280;48717;55.556;37.816;2023-08-06T07:25:59;99705.91;;;36.37;31.48
62655;BME280;48717;55.556;37.816;2023-08-06T07:28:26;99681.38;;;36.27;31.86
62655;BME280;48717;55.556;37.816;2023-08-06T07:30:53;99666.00;;;36.82;30.33
62655;BME280;48717;55.556;37.816;2023-08-06T07:33:21;99695.44;;;37.45;30.16
62655;BME280;48717;55.556;37.816;2023-08-06T07:35:48;99677.53;;;37.26;29.82
62655;BME280;48717;55.556;37.816;2023-08-06T07:38:15;99697.94;;;37.32;30.31
62655;BME280;48717;55.556;37.816;2023-08-06T07:40:42;99685.50;;;37.44;29.83
62655;BME280;48717;55.556;37.816;2023-08-06T07:43:09;99700.03;;;37.85;29.22
62655;BME280;48717;55.556;37.816;2023-08-06T07:45:37;99692.50;;;38.25;28.16
62655;BME280;48717;55.556;37.816;2023-08-06T07:48:04;99691.19;;;38.51;27.80
62655;BME280;48717;55.556;37.816;2023-08-06T07:50:32;99698.66;;;38.66;27.87
62655;BME280;48717;55.556;37.816;2023-08-06T07:52:59;99692.66;;;38.24;28.78
62655;BME280;48717;55.556;37.816;2023-08-06T07:55:27;99700.31;;;38.37;28.45
62655;BME280;48717;55.556;37.816;2023-08-06T07:57:54;99704.72;;;38.23;28.40
62655;BME280;48717;55.556;37.816;2023-08-06T08:00:21;99701.69;;;37.94;29.25
62655;BME280;48717;55.556;37.816;2023-08-06T08:02:48;99695.88;;;37.57;29.32
62655;BME280;48717;55.556;37.816;2023-08-06T08:05:16;99660.94;;;37.74;28.96
62655;BME280;48717;55.556;37.816;2023-08-06T08:07:43;99687.19;;;37.77;28.30
62655;BME280;48717;55.556;37.816;2023-08-06T08:10:13;99686.03;;;37.95;27.54
62655;BME280;48717;55.556;37.816;2023-08-06T08:12:41;99676.34;;;38.22;27.19
62655;BME280;48717;55.556;37.816;2023-08-06T08:15:09;99684.59;;;38.91;26.85
62655;BME280;48717;55.556;37.816;2023-08-06T08:17:37;99673.94;;;39.18;27.18
62655;BME280;48717;55.556;37.816;2023-08-06T08:20:05;99686.47;;;38.75;27.63
62655;BME280;48717;55.556;37.816;2023-08-06T08:26:15;99597.81;;;37.49;28.70
62655;BME280;48717;55.556;37.816;2023-08-06T08:28:42;99616.88;;;37.51;28.84
62655;BME280;48717;55.556;37.816;2023-08-06T08:31:10;99646.88;;;38.08;27.93
62655;BME280;48717;55.556;37.816;2023-08-06T08:33:38;99632.72;;;38.49;27.28
62655;BME280;48717;55.556;37.816;2023-08-06T08:36:06;99651.63;;;38.83;26.13
62655;BME280;48717;55.556;37.816;2023-08-06T08:38:33;99613.06;;;38.68;26.17
62655;BME280;48717;55.556;37.816;2023-08-06T08:44:18;99654.19;;;38.99;26.08
62655;BME280;48717;55.556;37.816;2023-08-06T08:46:47;99588.00;;;38.77;26.33
62655;BME280;48717;55.556;37.816;2023-08-06T08:49:15;99594.28;;;38.41;27.27
62655;BME280;48717;55.556;37.816;2023-08-06T08:51:43;99641.06;;;38.03;27.49
62655;BME280;48717;55.556;37.816;2023-08-06T08:54:15;99670.09;;;38.29;27.68
62655;BME280;48717;55.556;37.816;2023-08-06T08:56:43;99599.44;;;37.12;28.58
62655;BME280;48717;55.556;37.816;2023-08-06T08:59:11;99622.94;;;37.23;28.75
62655;BME280;48717;55.556;37.816;2023-08-06T09:01:39;99652.25;;;37.31;28.49
62655;BME280;48717;55.556;37.816;2023-08-06T09:04:09;99609.16;;;36.91;28.84
62655;BME280;48717;55.556;37.816;2023-08-06T09:06:38;99649.59;;;37.06;28.68
62655;BME280;48717;55.556;37.816;2023-08-06T09:09:09;99617.53;;;36.50;29.42
62655;BME280;48717;55.556;37.816;2023-08-06T09:11:45;99619.72;;;36.63;29.91
62655;BME280;48717;55.556;37.816;2023-08-06T09:14:12;99569.25;;;36.64;29.95
62655;BME280;48717;55.556;37.816;2023-08-06T09:16:40;99615.13;;;36.95;29.72
62655;BME280;48717;55.556;37.816;2023-08-06T09:19:12;99660.78;;;36.96;30.31
62655;BME280;48717;55.556;37.816;2023-08-06T09:21:40;99649.38;;;36.76;30.64
62655;BME280;48717;55.556;37.816;2023-08-06T09:24:11;99622.75;;;36.28;30.94
62655;BME280;48717;55.556;37.816;2023-08-06T09:26:43;99595.91;;;36.55;30.55
62655;BME280;48717;55.556;37.816;2023-08-06T09:29:11;99584.13;;;36.86;29.41
62655;BME280;48717;55.556;37.816;2023-08-06T12:12:45;99489.50;;;39.23;26.30
62655;BME280;48717;55.556;37.816;2023-08-06T12:21:40;99459.94;;;40.94;23.78
62655;BME280;48717;55.556;37.816;2023-08-06T12:24:08;99470.53;;;40.34;24.70
62655;BME280;48717;55.556;37.816;2023-08-06T12:26:37;99477.38;;;39.97;24.90
62655;BME280;48717;55.556;37.816;2023-08-06T12:29:05;99540.94;;;39.60;25.92
62655;BME280;48717;55.556;37.816;2023-08-06T14:27:22;99412.72;;;36.95;28.91
62655;BME280;48717;55.556;37.816;2023-08-06T14:29:50;99397.00;;;36.66;29.08
62655;BME280;48717;55.556;37.816;2023-08-06T14:32:18;99444.69;;;36.88;29.47
62655;BME280;48717;55.556;37.816;2023-08-06T14:34:47;99425.78;;;36.93;28.67
62655;BME280;48717;55.556;37.816;2023-08-06T14:37:15;99394.50;;;36.48;29.40
62655;BME280;48717;55.556;37.816;2023-08-06T14:39:47;99375.94;;;36.26;29.22
62655;BME280;48717;55.556;37.816;2023-08-06T14:43:01;99464.09;;;35.41;31.34
62655;BME280;48717;55.556;37.816;2023-08-06T14:49:20;99350.19;;;32.45;35.49
62655;BME280;48717;55.556;37.816;2023-08-06T14:52:07;99475.28;;;32.68;36.14
62655;BME280;48717;55.556;37.816;2023-08-06T14:54:35;99429.34;;;32.07;37.19
62655;BME280;48717;55.556;37.816;2023-08-06T14:57:02;99375.19;;;31.46;37.50
62655;BME280;48717;55.556;37.816;2023-08-06T14:59:30;99415.91;;;31.58;38.14
62655;BME280;48717;55.556;37.816;2023-08-06T15:01:57;99406.66;;;31.31;38.14
62655;BME280;48717;55.556;37.816;2023-08-06T15:04:25;99391.13;;;31.21;38.91
62655;BME280;48717;55.556;37.816;2023-08-06T15:06:52;99391.13;;;31.21;38.97
62655;BME280;48717;55.556;37.816;2023-08-06T15:09:21;99392.31;;;31.09;38.95
62655;BME280;48717;55.556;37.816;2023-08-06T15:11:49;99477.69;;;31.57;39.37
62655;BME280;48717;55.556;37.816;2023-08-06T15:14:16;99473.69;;;31.51;39.43
62655;BME280;48717;55.556;37.816;2023-08-06T15:16:46;99383.16;;;30.90;39.62
62655;BME280;48717;55.556;37.816;2023-08-06T15:19:14;99374.41;;;30.77;40.28
62655;BME280;48717;55.556;37.816;2023-08-06T15:21:41;99471.69;;;31.24;40.28
62655;BME280;48717;55.556;37.816;2023-08-06T15:24:33;99346.19;;;30.38;40.55
62655;BME280;48717;55.556;37.816;2023-08-06T15:47:48;99452.16;;;30.69;42.07
62655;BME280;48717;55.556;37.816;2023-08-06T15:53:30;99445.41;;;30.54;42.51
62655;BME280;48717;55.556;37.816;2023-08-06T15:55:58;99452.84;;;30.52;42.14
62655;BME280;48717;55.556;37.816;2023-08-06T15:58:26;99452.84;;;30.52;42.79
62655;BME280;48717;55.556;37.816;2023-08-06T16:00:53;99478.19;;;30.62;43.03
62655;BME280;48717;55.556;37.816;2023-08-06T16:03:20;99477.59;;;30.48;43.17
62655;BME280;48717;55.556;37.816;2023-08-06T16:05:48;99470.97;;;30.41;43.40
62655;BME280;48717;55.556;37.816;2023-08-06T16:08:15;99378.31;;;29.72;43.78
62655;BME280;48717;55.556;37.816;2023-08-06T16:11:06;99464.28;;;30.04;43.92
62655;BME280;48717;55.556;37.816;2023-08-06T16:13:56;99402.00;;;29.60;44.06
62655;BME280;48717;55.556;37.816;2023-08-06T16:16:44;99390.81;;;29.53;43.87
62655;BME280;48717;55.556;37.816;2023-08-06T16:19:49;99363.91;;;29.29;43.86
62655;BME280;48717;55.556;37.816;2023-08-06T16:23:09;99479.56;;;29.74;44.60
62655;BME280;48717;55.556;37.816;2023-08-06T16:25:44;99341.22;;;28.87;45.13
62655;BME280;48717;55.556;37.816;2023-08-06T16:28:22;99472.34;;;29.63;44.72
62655;BME280;48717;55.556;37.816;2023-08-06T16:31:14;99358.47;;;28.86;45.30
62655;BME280;48717;55.556;37.816;2023-08-06T16:33:53;99435.50;;;29.28;45.25
62655;BME280;48717;55.556;37.816;2023-08-06T16:36:28;99348.94;;;28.71;45.25
62655;BME280;48717;55.556;37.816;2023-08-06T16:39:03;99338.47;;;28.66;45.61
62655;BME280;48717;55.556;37.816;2023-08-06T16:41:38;99441.44;;;29.22;44.98
62655;BME280;48717;55.556;37.816;2023-08-06T16:44:18;99478.41;;;29.34;45.41
62655;BME280;48717;55.556;37.816;2023-08-06T16:47:16;99341.16;;;28.45;46.13
62655;BME280;48717;55.556;37.816;2023-08-06T16:50:45;99354.69;;;28.45;45.46
62655;BME280;48717;55.556;37.816;2023-08-06T16:53:18;99367.66;;;28.41;45.77
62655;BME280;48717;55.556;37.816;2023-08-06T16:55:46;99473.75;;;29.03;46.11
62655;BME280;48717;55.556;37.816;2023-08-06T16:58:14;99475.88;;;29.00;46.39
62655;BME280;48717;55.556;37.816;2023-08-06T17:00:45;99395.97;;;28.48;46.61
62655;BME280;48717;55.556;37.816;2023-08-06T17:03:14;99467.97;;;28.85;46.75
62655;BME280;48717;55.556;37.816;2023-08-06T17:05:43;99422.13;;;28.49;47.04
62655;BME280;48717;55.556;37.816;2023-08-06T17:08:11;99461.84;;;28.72;47.11
62655;BME280;48717;55.556;37.816;2023-08-06T17:11:32;99470.97;;;28.71;47.32
62655;BME280;48717;55.556;37.816;2023-08-06T17:24:47;99426.19;;;28.09;48.12
62655;BME280;48717;55.556;37.816;2023-08-06T17:27:14;99402.81;;;27.97;48.17
62655;BME280;48717;55.556;37.816;2023-08-06T17:29:42;99455.00;;;28.22;48.29
62655;BME280;48717;55.556;37.816;2023-08-06T17:32:09;99399.13;;;27.75;48.71
62655;BME280;48717;55.556;37.816;2023-08-06T17:34:38;99420.31;;;27.81;48.81
62655;BME280;48717;55.556;37.816;2023-08-06T17:37:05;99441.25;;;27.91;48.93
62655;BME280;48717;55.556;37.816;2023-08-06T17:39:33;99402.28;;;27.57;48.77
62655;BME280;48717;55.556;37.816;2023-08-06T17:45:18;99413.94;;;27.46;49.78
62655;BME280;48717;55.556;37.816;2023-08-06T17:47:46;99362.59;;;27.10;50.13
62655;BME280;48717;55.556;37.816;2023-08-06T17:51:05;99449.28;;;27.56;49.71
62655;BME280;48717;55.556;37.816;2023-08-06T17:53:32;99366.75;;;27.03;49.90
62655;BME280;48717;55.556;37.816;2023-08-06T17:56:00;99407.28;;;27.28;49.47
62655;BME280;48717;55.556;37.816;2023-08-06T17:58:29;99376.25;;;27.09;49.55
62655;BME280;48717;55.556;37.816;2023-08-06T18:00:56;99432.50;;;27.40;49.99
62655;BME280;48717;55.556;37.816;2023-08-06T18:03:24;99351.69;;;26.88;49.88
62655;BME280;48717;55.556;37.816;2023-08-06T18:05:56;99350.94;;;26.85;49.80
62655;BME280;48717;55.556;37.816;2023-08-06T18:12:02;99332.94;;;26.62;50.40
62655;BME280;48717;55.556;37.816;2023-08-06T18:15:28;99319.59;;;26.47;51.00
62655;BME280;48717;55.556;37.816;2023-08-06T18:18:40;99323.81;;;26.51;51.34
62655;BME280;48717;55.556;37.816;2023-08-06T18:22:17;99351.78;;;26.50;51.64
62655;BME280;48717;55.556;37.816;2023-08-06T18:25:22;99471.59;;;27.24;51.61
62655;BME280;48717;55.556;37.816;2023-08-06T18:27:50;99368.50;;;26.55;52.06
62655;BME280;48717;55.556;37.816;2023-08-06T18:30:22;99351.06;;;26.48;52.05
62655;BME280;48717;55.556;37.816;2023-08-06T18:33:03;99420.97;;;26.77;52.69
62655;BME280;48717;55.556;37.816;2023-08-06T18:35:31;99384.00;;;26.53;52.79
62655;BME280;48717;55.556;37.816;2023-08-06T18:37:58;99473.97;;;27.04;53.09
62655;BME280;48717;55.556;37.816;2023-08-06T18:40:29;99471.22;;;26.93;53.51
62655;BME280;48717;55.556;37.816;2023-08-06T18:42:57;99473.91;;;26.93;53.92
62655;BME280;48717;55.556;37.816;2023-08-06T18:45:24;99416.66;;;26.50;54.49
62655;BME280;48717;55.556;37.816;2023-08-06T18:47:51;99453.16;;;26.69;54.39
62655;BME280;48717;55.556;37.816;2023-08-06T18:50:19;99467.47;;;26.82;54.93